createdAt,value
2018-11-22T00:00:11.684Z,26.5
2018-11-22T00:01:01.569Z,26.4
2018-11-22T00:01:51.987Z,26.4
2018-11-22T00:02:41.409Z,26.4
2018-11-22T00:03:32.770Z,26.4
2018-11-22T00:04:23.049Z,26.5
2018-11-22T00:05:12.251Z,26.6
2018-11-22T00:06:02.861Z,26.7
2018-11-22T00:06:51.659Z,26.8
2018-11-22T00:25:07.556Z,28.1
2018-11-22T00:25:57.593Z,28.3
2018-11-22T00:26:46.759Z,28.3
2018-11-22T00:27:37.342Z,28.3
2018-11-22T00:28:26.632Z,28.3
2018-11-22T00:29:16.835Z,28.4
2018-11-22T00:30:07.683Z,28.4
2018-11-22T00:30:57.669Z,28.4
2018-11-22T00:31:46.827Z,28.4
2018-11-22T00:32:36.125Z,28.5
2018-11-22T00:33:27.154Z,28.4
2018-11-22T00:34:17.192Z,28.4
2018-11-22T00:35:08.152Z,28.3
2018-11-22T00:35:57.127Z,28.2
2018-11-22T00:36:47.032Z,28.1
2018-11-22T00:37:36.909Z,28
2018-11-22T00:38:27.513Z,27.9
2018-11-22T00:40:08.158Z,27.7
2018-11-22T00:40:58.514Z,27.6
2018-11-22T00:41:47.439Z,27.6
2018-11-22T00:42:37.616Z,27.3
2018-11-22T00:43:26.651Z,27.2
2018-11-22T00:44:16.971Z,27.1
2018-11-22T00:45:07.551Z,27
2018-11-22T00:45:58.373Z,26.9
2018-11-22T00:46:48.116Z,26.8
2018-11-22T00:47:37.186Z,26.7
2018-11-22T00:48:27.064Z,26.6
2018-11-22T00:49:18.180Z,26.6
2018-11-22T00:50:07.659Z,26.6
2018-11-22T00:50:58.466Z,26.6
2018-11-22T00:51:48.614Z,26.6
2018-11-22T00:52:37.763Z,26.7
2018-11-22T00:53:27.589Z,26.8
2018-11-22T00:54:18.921Z,26.8
2018-11-22T00:55:08.746Z,26.9
2018-11-22T00:55:59.588Z,26.9
2018-11-22T00:56:48.285Z,27.1
2018-11-22T00:57:39.662Z,27.1
2018-11-22T00:58:29.146Z,27.2
2018-11-22T00:59:17.511Z,27.2
2018-11-22T01:00:08.230Z,27.2
2018-11-22T01:01:00.450Z,27.3
2018-11-22T01:01:49.292Z,27.2
2018-11-22T01:02:38.371Z,27.2
2018-11-22T01:03:29.623Z,27.2
2018-11-22T01:04:19.460Z,27.1
2018-11-22T01:05:08.657Z,27.1
2018-11-22T01:06:01.301Z,27.1
2018-11-22T01:06:49.520Z,27
2018-11-22T01:07:38.947Z,26.9
2018-11-22T01:08:29.290Z,26.9
2018-11-22T01:09:19.908Z,26.8
2018-11-22T01:10:09.794Z,26.8
2018-11-22T01:11:01.003Z,26.8
2018-11-22T01:11:49.795Z,26.6
2018-11-22T01:12:40.205Z,26.6
2018-11-22T01:13:30.790Z,26.6
2018-11-22T01:14:20.322Z,26.7
2018-11-22T01:15:10.882Z,26.8
2018-11-22T01:16:01.032Z,26.9
2018-11-22T01:16:50.932Z,26.9
2018-11-22T01:17:40.547Z,27.1
2018-11-22T01:18:30.312Z,27.1
2018-11-22T01:19:19.182Z,27.3
2018-11-22T01:20:10.472Z,27.3
2018-11-22T01:21:00.414Z,27.4
2018-11-22T01:21:50.072Z,27.4
2018-11-22T01:22:40.554Z,27.6
2018-11-22T01:23:29.577Z,27.6
2018-11-22T01:24:20.287Z,27.7
2018-11-22T01:25:10.237Z,27.8
2018-11-22T01:26:51.142Z,27.9
2018-11-22T01:27:40.416Z,27.9
2018-11-22T01:28:30.757Z,28
2018-11-22T01:29:20.922Z,28
2018-11-22T01:30:10.921Z,27.9
2018-11-22T01:31:50.299Z,27.8
2018-11-22T01:32:41.644Z,27.6
2018-11-22T01:33:30.911Z,27.6
2018-11-22T01:34:20.624Z,27.4
2018-11-22T01:35:11.356Z,27.4
2018-11-22T01:36:01.824Z,27.3
2018-11-22T01:36:51.901Z,27.3
2018-11-22T01:37:41.681Z,27.1
2018-11-22T01:38:32.068Z,26.9
2018-11-22T01:39:20.669Z,26.8
2018-11-22T01:40:10.911Z,26.7
2018-11-22T01:41:02.859Z,26.6
2018-11-22T01:41:52.218Z,26.5
2018-11-22T01:42:41.623Z,26.4
2018-11-22T01:43:32.350Z,26.4
2018-11-22T01:44:22.413Z,26.3
2018-11-22T01:45:12.735Z,26.3
2018-11-22T01:46:02.000Z,26.3
2018-11-22T01:46:52.486Z,26.4
2018-11-22T01:47:42.665Z,26.4
2018-11-22T01:48:32.715Z,26.5
2018-11-22T01:49:22.520Z,26.6
2018-11-22T01:50:12.325Z,26.6
2018-11-22T01:51:02.932Z,26.7
2018-11-22T01:51:53.518Z,26.8
2018-11-22T01:52:42.762Z,26.9
2018-11-22T01:53:32.705Z,27.1
2018-11-22T01:54:22.876Z,27.1
2018-11-22T01:55:13.197Z,27.2
2018-11-22T01:56:03.448Z,27.3
2018-11-22T01:56:53.336Z,27.4
2018-11-22T01:57:43.562Z,27.4
2018-11-22T01:58:31.815Z,27.6
2018-11-22T01:59:24.515Z,27.6
2018-11-22T02:00:13.225Z,27.7
2018-11-22T02:01:03.647Z,27.8
2018-11-22T02:02:43.487Z,27.9
2018-11-22T02:03:33.872Z,27.9
2018-11-22T02:04:23.537Z,28
2018-11-22T02:05:12.535Z,28.1
2018-11-22T02:06:03.084Z,28.1
2018-11-22T02:06:53.822Z,28
2018-11-22T02:07:43.890Z,27.9
2018-11-22T02:09:24.677Z,27.8
2018-11-22T02:10:13.254Z,27.6
2018-11-22T02:11:03.577Z,27.5
2018-11-22T02:11:53.833Z,27.4
2018-11-22T02:12:44.919Z,27.4
2018-11-22T02:13:34.251Z,27.3
2018-11-22T02:14:23.811Z,27.3
2018-11-22T02:15:13.661Z,27
2018-11-22T02:16:04.034Z,26.9
2018-11-22T02:16:54.145Z,26.8
2018-11-22T02:17:44.582Z,26.7
2018-11-22T02:18:35.209Z,26.6
2018-11-22T02:19:23.688Z,26.4
2018-11-22T02:20:14.390Z,26.4
2018-11-22T02:21:05.246Z,26.4
2018-11-22T02:21:53.655Z,26.3
2018-11-22T02:22:45.456Z,26.3
2018-11-22T02:23:35.890Z,26.3
2018-11-22T02:24:24.132Z,26.4
2018-11-22T02:25:14.170Z,26.4
2018-11-22T02:26:04.566Z,26.5
2018-11-22T02:26:55.172Z,26.6
2018-11-22T02:27:45.468Z,26.6
2018-11-22T02:28:35.398Z,26.7
2018-11-22T02:29:24.727Z,26.8
2018-11-22T02:30:15.855Z,26.9
2018-11-22T02:31:05.463Z,27
2018-11-22T02:31:55.668Z,27.1
2018-11-22T02:32:46.753Z,27.2
2018-11-22T02:33:36.363Z,27.3
2018-11-22T02:34:25.125Z,27.4
2018-11-22T02:35:14.730Z,27.4
2018-11-22T02:36:05.685Z,27.5
2018-11-22T02:36:56.675Z,27.6
2018-11-22T02:37:45.865Z,27.7
2018-11-22T02:38:35.949Z,27.8
2018-11-22T02:40:14.592Z,27.9
2018-11-22T02:41:06.209Z,27.9
2018-11-22T02:41:55.709Z,27.9
2018-11-22T02:42:45.757Z,28
2018-11-22T02:43:35.709Z,28.1
2018-11-22T02:44:26.624Z,28.1
2018-11-22T02:45:16.124Z,28.1
2018-11-22T02:46:06.516Z,28.1
2018-11-22T02:46:55.779Z,28.1
2018-11-22T02:47:45.334Z,27.9
2018-11-22T02:49:26.476Z,27.8
2018-11-22T02:50:16.787Z,27.6
2018-11-22T02:51:07.063Z,27.6
2018-11-22T02:51:57.416Z,27.5
2018-11-22T02:52:46.781Z,27.4
2018-11-22T02:53:37.699Z,27.4
2018-11-22T02:54:27.460Z,27.2
2018-11-22T02:55:17.153Z,27
2018-11-22T02:56:06.878Z,26.9
2018-11-22T02:56:57.276Z,26.8
2018-11-22T02:57:48.077Z,26.7
2018-11-22T02:58:37.975Z,26.6
2018-11-22T02:59:27.661Z,26.5
2018-11-22T03:00:17.941Z,26.4
2018-11-22T03:01:07.161Z,26.4
2018-11-22T03:01:57.399Z,26.3
2018-11-22T03:02:47.391Z,26.3
2018-11-22T03:03:38.453Z,26.4
2018-11-22T03:04:27.119Z,26.5
2018-11-22T03:05:18.903Z,26.6
2018-11-22T03:06:08.047Z,26.6
2018-11-22T03:06:58.143Z,26.7
2018-11-22T03:07:48.493Z,26.8
2018-11-22T03:08:38.551Z,26.9
2018-11-22T03:09:28.768Z,26.9
2018-11-22T03:10:17.287Z,27.1
2018-11-22T03:11:09.324Z,27.1
2018-11-22T03:11:58.525Z,27.3
2018-11-22T03:12:50.674Z,27.3
2018-11-22T03:13:37.361Z,27.4
2018-11-22T03:14:28.790Z,27.5
2018-11-22T03:15:18.443Z,27.6
2018-11-22T03:16:08.885Z,27.6
2018-11-22T03:16:59.090Z,27.7
2018-11-22T03:17:47.847Z,27.8
2018-11-22T03:20:19.567Z,27.9
2018-11-22T03:21:08.607Z,27.9
2018-11-22T03:21:58.369Z,28
2018-11-22T03:22:49.754Z,28
2018-11-22T03:23:39.676Z,28.1
2018-11-22T03:24:30.140Z,28.1
2018-11-22T03:25:18.702Z,28.2
2018-11-22T03:26:09.554Z,28.2
2018-11-22T03:26:59.855Z,28.3
2018-11-22T03:27:50.179Z,28.3
2018-11-22T03:28:39.206Z,28.3
2018-11-22T03:29:30.259Z,28.3
2018-11-22T03:30:20.191Z,28.4
2018-11-22T03:31:09.972Z,28.4
2018-11-22T03:31:59.929Z,28.4
2018-11-22T03:32:50.864Z,28.4
2018-11-22T03:33:38.613Z,28.4
2018-11-22T03:34:29.839Z,28.3
2018-11-22T03:35:20.024Z,28.1
2018-11-22T03:36:09.793Z,28.1
2018-11-22T03:36:59.817Z,27.9
2018-11-22T03:37:49.282Z,27.9
2018-11-22T03:39:30.586Z,27.7
2018-11-22T03:40:19.633Z,27.6
2018-11-22T03:41:10.606Z,27.6
2018-11-22T03:41:59.928Z,27.5
2018-11-22T03:42:50.240Z,27.2
2018-11-22T03:43:39.528Z,27.1
2018-11-22T03:44:31.310Z,26.9
2018-11-22T03:45:19.104Z,26.9
2018-11-22T03:46:10.098Z,26.8
2018-11-22T03:47:01.484Z,26.7
2018-11-22T03:47:50.420Z,26.6
2018-11-22T03:48:40.267Z,26.6
2018-11-22T03:49:30.875Z,26.5
2018-11-22T03:50:21.008Z,26.5
2018-11-22T03:51:10.780Z,26.6
2018-11-22T03:52:02.118Z,26.6
2018-11-22T03:52:51.897Z,26.7
2018-11-22T03:53:40.729Z,26.8
2018-11-22T03:54:31.441Z,26.8
2018-11-22T03:55:22.690Z,26.9
2018-11-22T03:56:11.845Z,27
2018-11-22T03:57:00.580Z,27.1
2018-11-22T03:57:51.537Z,27.1
2018-11-22T03:58:41.555Z,27.1
2018-11-22T03:59:31.591Z,27.1
2018-11-22T04:00:21.672Z,27.1
2018-11-22T04:01:11.735Z,27.1
2018-11-22T04:02:02.402Z,27.1
2018-11-22T04:02:52.700Z,27.1
2018-11-22T04:03:40.747Z,27.1
2018-11-22T04:04:31.651Z,27
2018-11-22T04:05:21.247Z,26.9
2018-11-22T04:06:12.562Z,26.9
2018-11-22T04:07:02.152Z,26.9
2018-11-22T04:07:51.699Z,26.8
2018-11-22T04:08:41.970Z,26.7
2018-11-22T04:09:31.727Z,26.6
2018-11-22T04:10:22.228Z,26.6
2018-11-22T04:11:11.596Z,26.6
2018-11-22T04:12:03.074Z,26.6
2018-11-22T04:12:51.871Z,26.6
2018-11-22T04:13:42.584Z,26.7
2018-11-22T04:14:32.481Z,26.8
2018-11-22T04:15:22.179Z,26.9
2018-11-22T04:16:13.561Z,26.9
2018-11-22T04:17:03.211Z,27
2018-11-22T04:17:53.713Z,27.1
2018-11-22T04:18:42.423Z,27.3
2018-11-22T04:19:32.518Z,27.3
2018-11-22T04:20:21.371Z,27.3
2018-11-22T04:21:13.285Z,27.4
2018-11-22T04:22:02.411Z,27.5
2018-11-22T04:22:52.581Z,27.6
2018-11-22T04:23:42.508Z,27.6
2018-11-22T04:24:32.589Z,27.5
2018-11-22T04:25:23.421Z,27.4
2018-11-22T04:26:12.465Z,27.5
2018-11-22T04:27:03.939Z,27.5
2018-11-22T04:27:53.367Z,27.5
2018-11-22T04:28:42.543Z,27.6
2018-11-22T04:29:33.116Z,27.7
2018-11-22T04:30:23.765Z,27.6
2018-11-22T04:31:12.537Z,27.6
2018-11-22T04:32:02.773Z,27.5
2018-11-22T04:32:53.672Z,27.4
2018-11-22T04:33:43.618Z,27.3
2018-11-22T04:34:33.545Z,27.3
2018-11-22T04:35:23.555Z,27.1
2018-11-22T04:36:14.570Z,27.1
2018-11-22T04:37:04.547Z,27
2018-11-22T04:54:24.155Z,26.6
2018-11-22T04:55:13.213Z,26.6
2018-11-22T04:56:04.149Z,26.8
2018-11-22T04:56:54.098Z,26.8
2018-11-22T04:57:43.901Z,26.9
2018-11-22T04:58:34.496Z,27
2018-11-22T04:59:23.726Z,27.1
2018-11-22T05:00:13.469Z,27.1
2018-11-22T05:01:03.548Z,27.2
2018-11-22T05:01:52.488Z,27.3
2018-11-22T05:02:45.354Z,27.4
2018-11-22T05:03:33.146Z,27.4
2018-11-22T05:04:30.906Z,27.4
2018-11-22T05:05:14.650Z,27.5
2018-11-22T05:06:04.979Z,27.6
2018-11-22T05:06:53.715Z,27.6
2018-11-22T05:07:44.333Z,27.6
2018-11-22T05:08:34.293Z,27.8
2018-11-22T05:09:24.168Z,27.7
2018-11-22T05:10:14.305Z,27.6
2018-11-22T05:11:04.811Z,27.6
2018-11-22T05:11:54.246Z,27.4
2018-11-22T05:12:43.797Z,27.3
2018-11-22T05:13:35.560Z,27.3
2018-11-22T05:14:24.287Z,27.2
2018-11-22T05:15:13.531Z,27.1
2018-11-22T05:16:04.444Z,27
2018-11-22T05:16:54.700Z,26.9
2018-11-22T05:17:43.917Z,26.8
2018-11-22T05:18:34.522Z,26.6
2018-11-22T05:19:24.582Z,26.4
2018-11-22T05:20:15.015Z,26.3
2018-11-22T05:21:05.233Z,26.3
2018-11-22T05:21:54.475Z,26.1
2018-11-22T05:22:45.072Z,26
2018-11-22T05:23:36.021Z,25.9
2018-11-22T05:24:25.269Z,25.9
2018-11-22T05:25:14.197Z,25.9
2018-11-22T05:26:06.381Z,25.9
2018-11-22T05:26:55.359Z,25.9
2018-11-22T05:27:45.463Z,25.9
2018-11-22T05:28:34.519Z,26
2018-11-22T05:29:25.191Z,26.1
2018-11-22T05:30:16.156Z,26.2
2018-11-22T05:31:06.019Z,26.3
2018-11-22T05:31:56.996Z,26.3
2018-11-22T05:32:45.577Z,26.4
2018-11-22T05:33:36.351Z,26.6
2018-11-22T05:34:25.984Z,26.6
2018-11-22T05:35:16.269Z,26.7
2018-11-22T05:36:06.831Z,26.8
2018-11-22T05:36:55.621Z,26.9
2018-11-22T05:37:45.686Z,26.9
2018-11-22T05:38:36.718Z,27.1
2018-11-22T05:39:27.088Z,27.1
2018-11-22T05:40:16.866Z,27.2
2018-11-22T05:41:06.629Z,27.3
2018-11-22T05:41:57.200Z,27.3
2018-11-22T05:42:46.930Z,27.4
2018-11-22T05:43:36.841Z,27.4
2018-11-22T05:44:27.886Z,27.5
2018-11-22T05:45:17.228Z,27.5
2018-11-22T05:46:07.233Z,27.6
2018-11-22T05:46:56.708Z,27.6
2018-11-22T05:47:46.492Z,27.6
2018-11-22T05:48:36.789Z,27.7
2018-11-22T05:49:27.342Z,27.7
2018-11-22T05:50:16.887Z,27.8
2018-11-22T05:51:56.538Z,27.8
2018-11-22T05:52:47.465Z,27.8
2018-11-22T05:53:37.276Z,27.7
2018-11-22T05:54:27.548Z,27.6
2018-11-22T05:55:17.744Z,27.4
2018-11-22T05:56:06.622Z,27.4
2018-11-22T05:56:57.622Z,27.3
2018-11-22T05:57:48.227Z,27.2
2018-11-22T05:58:37.765Z,27.1
2018-11-22T05:59:27.419Z,27.1
2018-11-22T06:00:17.872Z,27
2018-11-22T06:01:06.907Z,26.7
2018-11-22T06:01:58.189Z,26.6
2018-11-22T06:02:48.602Z,26.4
2018-11-22T06:03:37.419Z,26.4
2018-11-22T06:04:28.114Z,26.3
2018-11-22T06:05:18.489Z,26.1
2018-11-22T06:06:07.571Z,26.1
2018-11-22T06:06:58.267Z,26.1
2018-11-22T06:07:46.897Z,26
2018-11-22T06:08:38.379Z,26
2018-11-22T06:09:29.087Z,26
2018-11-22T06:10:19.047Z,26
2018-11-22T06:11:08.604Z,26.1
2018-11-22T06:11:59.343Z,26.2
2018-11-22T06:12:48.523Z,26.2
2018-11-22T06:13:38.541Z,26.3
2018-11-22T06:14:29.264Z,26.4
2018-11-22T06:15:18.062Z,26.4
2018-11-22T06:16:08.959Z,26.5
2018-11-22T06:16:59.563Z,26.6
2018-11-22T06:17:48.819Z,26.7
2018-11-22T06:18:38.961Z,26.8
2018-11-22T06:19:29.183Z,26.9
2018-11-22T06:20:19.591Z,26.9
2018-11-22T06:21:10.133Z,27
2018-11-22T06:22:00.225Z,27.1
2018-11-22T06:22:48.895Z,27.1
2018-11-22T06:23:39.200Z,27.2
2018-11-22T06:24:29.871Z,27.3
2018-11-22T06:25:18.981Z,27.3
2018-11-22T06:26:09.193Z,27.4
2018-11-22T06:27:00.339Z,27.4
2018-11-22T06:27:50.116Z,27.4
2018-11-22T06:28:39.515Z,27.5
2018-11-22T06:29:29.945Z,27.6
2018-11-22T06:30:19.159Z,27.6
2018-11-22T06:31:12.991Z,27.6
2018-11-22T06:31:59.945Z,27.7
2018-11-22T06:32:50.430Z,27.7
2018-11-22T06:33:39.720Z,27.7
2018-11-22T06:34:30.020Z,27.8
2018-11-22T06:37:48.982Z,27.9
2018-11-22T06:38:40.367Z,27.9
2018-11-22T06:39:30.637Z,27.9
2018-11-22T06:40:20.530Z,28
2018-11-22T06:41:10.875Z,27.9
2018-11-22T06:42:00.197Z,27.9
2018-11-22T06:43:41.418Z,27.8
2018-11-22T06:44:30.629Z,27.7
2018-11-22T06:45:20.171Z,27.6
2018-11-22T06:46:12.104Z,27.5
2018-11-22T06:47:01.974Z,27.4
2018-11-22T06:47:51.007Z,27.4
2018-11-22T06:48:40.559Z,27.3
2018-11-22T06:49:29.895Z,27.1
2018-11-22T06:50:22.339Z,27.1
2018-11-22T06:51:11.899Z,26.9
2018-11-22T06:52:01.571Z,26.9
2018-11-22T06:52:51.846Z,26.9
2018-11-22T06:53:40.051Z,26.9
2018-11-22T06:54:31.136Z,26.9
2018-11-22T06:55:22.261Z,26.9
2018-11-22T06:56:12.756Z,27
2018-11-22T06:57:01.608Z,27.1
2018-11-22T06:57:51.708Z,27.2
2018-11-22T06:58:42.710Z,27.2
2018-11-22T06:59:32.206Z,27.3
2018-11-22T07:00:22.215Z,27.4
2018-11-22T07:01:11.351Z,27.4
2018-11-22T07:02:02.395Z,27.5
2018-11-22T07:02:51.415Z,27.6
2018-11-22T07:03:42.461Z,27.6
2018-11-22T07:04:32.343Z,27.7
2018-11-22T07:06:11.704Z,27.8
2018-11-22T07:07:02.912Z,27.7
2018-11-22T07:07:52.383Z,27.7
2018-11-22T07:08:42.877Z,27.6
2018-11-22T07:09:31.278Z,27.5
2018-11-22T07:10:22.267Z,27.4
2018-11-22T07:11:12.966Z,27.3
2018-11-22T07:12:03.242Z,27.3
2018-11-22T07:12:52.808Z,27.3
2018-11-22T07:13:43.040Z,27.2
2018-11-22T07:14:33.226Z,26.9
2018-11-22T07:15:22.507Z,26.8
2018-11-22T07:16:12.825Z,26.6
2018-11-22T07:17:03.509Z,26.5
2018-11-22T07:17:53.132Z,26.4
2018-11-22T07:18:43.133Z,26.4
2018-11-22T07:19:32.779Z,26.3
2018-11-22T07:20:23.451Z,26.2
2018-11-22T07:21:13.069Z,26.1
2018-11-22T07:22:03.463Z,26.1
2018-11-22T07:22:53.739Z,26.1
2018-11-22T07:23:43.488Z,26.2
2018-11-22T07:24:32.974Z,26.3
2018-11-22T07:25:24.672Z,26.3
2018-11-22T07:26:14.106Z,26.4
2018-11-22T07:27:03.866Z,26.4
2018-11-22T07:27:54.439Z,26.5
2018-11-22T07:28:44.551Z,26.6
2018-11-22T07:29:34.454Z,26.7
2018-11-22T07:30:23.932Z,26.8
2018-11-22T07:31:13.934Z,26.8
2018-11-22T07:32:04.754Z,26.9
2018-11-22T07:32:54.406Z,27
2018-11-22T07:33:45.276Z,27.1
2018-11-22T07:34:33.661Z,27.2
2018-11-22T07:35:24.966Z,27.3
2018-11-22T07:36:14.903Z,27.3
2018-11-22T07:37:03.758Z,27.4
2018-11-22T07:37:55.193Z,27.4
2018-11-22T07:38:45.681Z,27.5
2018-11-22T07:39:34.600Z,27.6
2018-11-22T07:40:24.661Z,27.6
2018-11-22T07:41:14.114Z,27.6
2018-11-22T07:42:04.533Z,27.6
2018-11-22T07:42:57.608Z,27.4
2018-11-22T07:43:45.123Z,27.4
2018-11-22T07:44:35.843Z,27.3
2018-11-22T07:45:26.376Z,27.3
2018-11-22T07:46:15.636Z,27.1
2018-11-22T07:47:04.547Z,27.1
2018-11-22T07:47:54.970Z,27.1
2018-11-22T07:48:44.997Z,26.9
2018-11-22T07:49:34.884Z,26.6
2018-11-22T07:50:25.020Z,26.6
2018-11-22T07:51:15.957Z,26.4
2018-11-22T07:52:05.209Z,26.3
2018-11-22T07:53:02.764Z,26.3
2018-11-22T07:53:45.135Z,26.2
2018-11-22T07:54:35.067Z,26.1
2018-11-22T07:55:25.290Z,26.1
2018-11-22T07:56:15.272Z,26
2018-11-22T07:57:05.858Z,26.1
2018-11-22T07:57:55.620Z,26.1
2018-11-22T07:58:45.537Z,26.1
2018-11-22T07:59:35.736Z,26.2
2018-11-22T08:00:26.649Z,26.3
2018-11-22T08:01:15.619Z,26.3
2018-11-22T08:02:06.094Z,26.4
2018-11-22T08:02:56.209Z,26.4
2018-11-22T08:03:45.557Z,26.6
2018-11-22T08:04:35.772Z,26.6
2018-11-22T08:05:25.671Z,26.7
2018-11-22T08:06:15.481Z,26.8
2018-11-22T08:07:06.688Z,26.9
2018-11-22T08:07:56.685Z,26.9
2018-11-22T08:08:47.979Z,27.1
2018-11-22T08:09:35.991Z,27.1
2018-11-22T08:10:26.581Z,27.2
2018-11-22T08:11:17.795Z,27.3
2018-11-22T08:12:13.222Z,27.3
2018-11-22T08:12:58.000Z,27.4
2018-11-22T08:13:47.403Z,27.4
2018-11-22T08:14:37.995Z,27.5
2018-11-22T08:15:27.079Z,27.6
2018-11-22T08:16:17.538Z,27.6
2018-11-22T08:17:07.541Z,27.6
2018-11-22T08:17:56.483Z,27.5
2018-11-22T08:18:47.355Z,27.4
2018-11-22T08:19:36.429Z,27.4
2018-11-22T08:20:27.118Z,27.3
2018-11-22T08:21:16.702Z,27.2
2018-11-22T08:22:07.990Z,27.1
2018-11-22T08:22:58.522Z,27.1
2018-11-22T08:23:48.661Z,27.1
2018-11-22T08:24:38.857Z,27
2018-11-22T08:25:28.919Z,26.7
2018-11-22T08:26:18.799Z,26.6
2018-11-22T08:27:07.540Z,26.4
2018-11-22T08:27:58.045Z,26.4
2018-11-22T08:28:48.572Z,26.3
2018-11-22T08:29:37.892Z,26.1
2018-11-22T08:30:28.418Z,26.1
2018-11-22T08:31:17.689Z,26.1
2018-11-22T08:32:08.745Z,26
2018-11-22T08:32:58.643Z,25.9
2018-11-22T08:33:49.460Z,26
2018-11-22T08:34:39.602Z,26
2018-11-22T08:35:28.579Z,26.1
2018-11-22T08:36:18.769Z,26.2
2018-11-22T08:37:07.625Z,26.3
2018-11-22T08:42:56.402Z,26.9
2018-11-22T08:43:38.946Z,26.9
2018-11-22T08:44:28.676Z,27
2018-11-22T08:45:19.261Z,27.1
2018-11-22T08:46:09.976Z,27.2
2018-11-22T08:46:58.811Z,27.3
2018-11-22T08:47:48.586Z,27.3
2018-11-22T08:48:38.210Z,27.4
2018-11-22T08:49:29.221Z,27.4
2018-11-22T08:50:19.856Z,27.6
2018-11-22T08:51:09.873Z,27.6
2018-11-22T08:51:59.694Z,27.6
2018-11-22T08:52:49.296Z,27.4
2018-11-22T09:08:53.495Z,25.9
2018-11-22T09:09:42.963Z,26
2018-11-22T09:10:34.047Z,26.1
2018-11-22T09:11:23.351Z,26.1
2018-11-22T09:12:12.876Z,26.2
2018-11-22T09:13:02.691Z,26.3
2018-11-22T09:13:53.548Z,26.4
2018-11-22T09:14:42.996Z,26.5
2018-11-22T09:15:37.984Z,26.6
2018-11-22T09:16:22.834Z,26.7
2018-11-22T09:17:12.359Z,26.8
2018-11-22T09:18:02.969Z,26.9
2018-11-22T09:18:53.336Z,27
2018-11-22T09:19:43.898Z,27.1
2018-11-22T09:20:33.129Z,27.1
2018-11-22T09:21:24.546Z,27.2
2018-11-22T09:22:14.056Z,27.3
2018-11-22T09:23:02.560Z,27.4
2018-11-22T09:23:53.704Z,27.4
2018-11-22T09:24:43.970Z,27.5
2018-11-22T09:25:33.728Z,27.6
2018-11-22T09:26:23.248Z,27.6
2018-11-22T09:27:14.397Z,27.5
2018-11-22T09:28:03.370Z,27.4
2018-11-22T09:28:54.208Z,27.4
2018-11-22T09:29:46.070Z,27.3
2018-11-22T09:30:34.665Z,27.2
2018-11-22T09:31:24.419Z,27.1
2018-11-22T09:32:14.177Z,27.1
2018-11-22T09:33:04.325Z,27.1
2018-11-22T09:33:53.438Z,27
2018-11-22T09:34:44.397Z,26.8
2018-11-22T09:35:34.747Z,26.6
2018-11-22T09:36:23.968Z,26.5
2018-11-22T09:37:15.110Z,26.4
2018-11-22T09:38:03.790Z,26.3
2018-11-22T09:38:55.222Z,26.2
2018-11-22T09:39:44.442Z,26.1
2018-11-22T09:40:34.302Z,26.1
2018-11-22T09:41:24.379Z,26
2018-11-22T09:42:16.416Z,25.9
2018-11-22T09:43:04.467Z,25.9
2018-11-22T09:43:55.302Z,25.9
2018-11-22T09:44:45.902Z,26
2018-11-22T09:45:35.696Z,26.1
2018-11-22T09:46:26.534Z,26.1
2018-11-22T09:47:15.269Z,26.2
2018-11-22T09:48:04.520Z,26.3
2018-11-22T09:48:56.690Z,26.3
2018-11-22T09:49:45.241Z,26.4
2018-11-22T09:50:35.804Z,26.5
2018-11-22T09:51:26.993Z,26.6
2018-11-22T09:52:16.714Z,26.7
2018-11-22T09:53:07.069Z,26.8
2018-11-22T09:53:56.558Z,26.9
2018-11-22T09:54:47.221Z,27
2018-11-22T09:55:36.446Z,27.1
2018-11-22T09:56:27.324Z,27.2
2018-11-22T09:57:17.101Z,27.3
2018-11-22T09:58:07.428Z,27.3
2018-11-22T09:58:58.080Z,27.4
2018-11-22T09:59:46.776Z,27.4
2018-11-22T10:00:36.816Z,27.6
2018-11-22T10:01:27.378Z,27.6
2018-11-22T10:02:15.789Z,27.6
2018-11-22T10:03:08.894Z,27.5
2018-11-22T10:03:56.491Z,27.4
2018-11-22T10:04:48.990Z,27.4
2018-11-22T10:05:38.477Z,27.3
2018-11-22T10:06:26.909Z,27.2
2018-11-22T10:07:16.683Z,27.1
2018-11-22T10:08:07.635Z,27.1
2018-11-22T10:08:57.603Z,27
2018-11-22T10:09:47.638Z,26.9
2018-11-22T10:10:37.211Z,26.7
2018-11-22T10:11:27.303Z,26.6
2018-11-22T10:12:17.086Z,26.4
2018-11-22T10:13:07.350Z,26.3
2018-11-22T10:13:56.912Z,26.3
2018-11-22T10:14:47.278Z,26.2
2018-11-22T10:15:37.222Z,26.1
2018-11-22T10:16:27.075Z,26
2018-11-22T10:17:18.413Z,26
2018-11-22T10:18:08.016Z,25.9
2018-11-22T10:18:58.052Z,25.9
2018-11-22T10:19:45.940Z,26
2018-11-22T10:20:37.862Z,26
2018-11-22T10:21:28.512Z,26.1
2018-11-22T10:22:17.824Z,26.1
2018-11-22T10:23:08.434Z,26.2
2018-11-22T10:24:00.388Z,26.3
2018-11-22T10:24:47.617Z,26.4
2018-11-22T10:25:37.934Z,26.4
2018-11-22T10:26:27.704Z,26.6
2018-11-22T10:27:18.129Z,26.7
2018-11-22T10:28:07.892Z,26.8
2018-11-22T10:28:59.047Z,26.9
2018-11-22T10:29:47.758Z,26.9
2018-11-22T10:30:38.122Z,27.1
2018-11-22T10:31:27.970Z,27.1
2018-11-22T10:32:17.761Z,27.3
2018-11-22T10:33:08.311Z,27.3
2018-11-22T10:33:57.830Z,27.4
2018-11-22T10:34:49.514Z,27.4
2018-11-22T10:35:38.187Z,27.5
2018-11-22T10:36:27.884Z,27.6
2018-11-22T10:37:18.516Z,27.6
2018-11-22T10:38:11.204Z,27.6
2018-11-22T10:38:59.258Z,27.5
2018-11-22T10:39:48.911Z,27.4
2018-11-22T10:40:39.808Z,27.4
2018-11-22T10:41:29.016Z,27.3
2018-11-22T10:42:19.957Z,27.2
2018-11-22T10:43:59.179Z,27.1
2018-11-22T10:44:49.895Z,27.1
2018-11-22T10:45:39.626Z,27
2018-11-22T10:46:30.195Z,26.9
2018-11-22T10:47:19.473Z,26.9
2018-11-22T10:48:08.669Z,26.9
2018-11-22T10:48:59.283Z,26.6
2018-11-22T10:49:56.843Z,26.4
2018-11-22T10:50:39.405Z,26.3
2018-11-22T10:51:29.726Z,26.3
2018-11-22T10:52:20.405Z,26.3
2018-11-22T10:53:09.579Z,26.3
2018-11-22T10:54:01.000Z,26.4
2018-11-22T10:54:49.395Z,26.4
2018-11-22T10:55:40.903Z,26.5
2018-11-22T10:56:30.072Z,26.6
2018-11-22T10:57:20.237Z,26.7
2018-11-22T10:58:10.197Z,26.8
2018-11-22T10:59:00.033Z,26.9
2018-11-22T10:59:49.737Z,27
2018-11-22T11:00:40.747Z,27.1
2018-11-22T11:01:30.962Z,27.1
2018-11-22T11:02:22.852Z,27.3
2018-11-22T11:03:10.522Z,27.3
2018-11-22T11:04:00.893Z,27.4
2018-11-22T11:04:50.910Z,27.5
2018-11-22T11:05:40.519Z,27.5
2018-11-22T11:06:31.387Z,27.5
2018-11-22T11:07:21.832Z,27.5
2018-11-22T11:08:12.237Z,27.4
2018-11-22T11:09:01.774Z,27.4
2018-11-22T11:09:50.504Z,27.4
2018-11-22T11:10:40.276Z,27.3
2018-11-22T11:11:31.718Z,27.2
2018-11-22T11:12:27.576Z,27.1
2018-11-22T11:13:12.002Z,27.1
2018-11-22T11:14:01.007Z,27
2018-11-22T11:14:51.456Z,26.9
2018-11-22T11:15:41.784Z,26.9
2018-11-22T11:16:32.279Z,26.9
2018-11-22T11:17:20.977Z,26.9
2018-11-22T11:18:11.596Z,26.9
2018-11-22T11:19:02.240Z,27
2018-11-22T11:19:52.041Z,27.1
2018-11-22T11:20:41.521Z,27.2
2018-11-22T11:21:32.692Z,27.2
2018-11-22T11:22:22.478Z,27.3
2018-11-22T11:23:11.116Z,27.4
2018-11-22T11:24:02.549Z,27.5
2018-11-22T11:24:51.411Z,27.6
2018-11-22T11:25:42.416Z,27.6
2018-11-22T11:26:32.033Z,27.6
2018-11-22T11:27:23.340Z,27.6
2018-11-22T11:28:12.836Z,27.5
2018-11-22T11:29:02.566Z,27.4
2018-11-22T11:29:52.960Z,27.4
2018-11-22T11:30:42.731Z,27.3
2018-11-22T11:31:33.043Z,27.2
2018-11-22T11:32:21.998Z,27.1
2018-11-22T11:33:13.725Z,27.1
2018-11-22T11:34:04.415Z,27.1
2018-11-22T11:34:53.050Z,27
2018-11-22T11:35:42.255Z,27
2018-11-22T11:36:33.507Z,26.9
2018-11-22T11:37:23.470Z,26.8
2018-11-22T11:38:14.063Z,26.5
2018-11-22T11:39:03.300Z,26.4
2018-11-22T11:39:52.582Z,26.4
2018-11-22T11:40:43.430Z,26.4
2018-11-22T11:41:33.558Z,26.4
2018-11-22T11:42:23.292Z,26.4
2018-11-22T11:43:12.532Z,26.5
2018-11-22T11:44:03.655Z,26.6
2018-11-22T11:44:52.690Z,26.6
2018-11-22T11:45:42.504Z,26.8
2018-11-22T11:46:33.355Z,26.9
2018-11-22T11:47:23.402Z,26.9
2018-11-22T11:48:12.932Z,27.1
2018-11-22T11:49:03.434Z,27.1
2018-11-22T11:49:54.094Z,27.3
2018-11-22T11:50:44.092Z,27.3
2018-11-22T11:51:33.375Z,27.4
2018-11-22T11:52:24.789Z,27.5
2018-11-22T11:53:14.293Z,27.6
2018-11-22T11:54:04.619Z,27.6
2018-11-22T11:54:55.272Z,27.4
2018-11-22T11:55:43.907Z,27.4
2018-11-22T11:56:32.925Z,27.3
2018-11-22T11:57:23.814Z,27.3
2018-11-22T11:58:14.920Z,27.2
2018-11-22T11:59:04.214Z,27.1
2018-11-22T11:59:55.347Z,27.1
2018-11-22T12:00:44.282Z,27
2018-11-22T12:01:34.071Z,26.8
2018-11-22T12:02:25.246Z,26.6
2018-11-22T12:03:14.941Z,26.5
2018-11-22T12:04:05.316Z,26.4
2018-11-22T12:04:55.090Z,26.3
2018-11-22T12:05:45.459Z,26.3
2018-11-22T12:06:34.769Z,26.1
2018-11-22T12:07:24.267Z,26.1
2018-11-22T12:08:15.133Z,26.1
2018-11-22T12:09:05.697Z,26
2018-11-22T12:10:01.489Z,25.9
2018-11-22T12:10:45.464Z,25.9
2018-11-22T12:11:35.588Z,26
2018-11-22T12:12:25.601Z,26.1
2018-11-22T12:13:15.458Z,26.1
2018-11-22T12:14:06.006Z,26.2
2018-11-22T12:14:54.983Z,26.3
2018-11-22T12:15:44.864Z,26.3
2018-11-22T12:16:36.752Z,26.4
2018-11-22T12:17:25.413Z,26.6